sensor_id;sensor_type;location;lat;lon;timestamp;pressure;altitude;pressure_sealevel;temperature;humidity
64316;BME280;50652;51.482;-0.580;2023-06-24T00:01:17;102333.19;;;21.23;48.27
64316;BME280;50652;51.482;-0.580;2023-06-24T00:03:43;102334.83;;;21.20;47.70
64316;BME280;50652;51.482;-0.580;2023-06-24T00:06:10;102334.90;;;21.42;47.46
64316;BME280;50652;51.482;-0.580;2023-06-24T00:08:37;102337.23;;;21.22;47.52
64316;BME280;50652;51.482;-0.580;2023-06-24T00:11:04;102335.64;;;20.90;48.87
64316;BME280;50652;51.482;-0.580;2023-06-24T00:13:31;102334.44;;;20.94;48.83
64316;BME280;50652;51.482;-0.580;2023-06-24T00:15:58;102331.84;;;21.35;47.98
64316;BME280;50652;51.482;-0.580;2023-06-24T00:18:25;102332.10;;;20.55;49.56
64316;BME280;50652;51.482;-0.580;2023-06-24T00:20:52;102334.45;;;21.47;47.72
64316;BME280;50652;51.482;-0.580;2023-06-24T00:23:27;102334.81;;;21.26;48.21
64316;BME280;50652;51.482;-0.580;2023-06-24T00:25:55;102336.34;;;21.47;48.64
64316;BME280;50652;51.482;-0.580;2023-06-24T00:28:23;102330.87;;;21.31;48.00
64316;BME280;50652;51.482;-0.580;2023-06-24T00:30:50;102332.14;;;21.63;47.47
64316;BME280;50652;51.482;-0.580;2023-06-24T00:33:21;102330.94;;;21.78;47.48
64316;BME280;50652;51.482;-0.580;2023-06-24T00:35:48;102332.28;;;21.83;47.29
64316;BME280;50652;51.482;-0.580;2023-06-24T00:38:16;102329.86;;;20.70;48.38
64316;BME280;50652;51.482;-0.580;2023-06-24T00:40:43;102338.39;;;21.56;47.18
64316;BME280;50652;51.482;-0.580;2023-06-24T00:43:10;102335.33;;;21.50;46.93
64316;BME280;50652;51.482;-0.580;2023-06-24T00:45:38;102332.56;;;21.07;47.72
64316;BME280;50652;51.482;-0.580;2023-06-24T00:48:06;102331.40;;;20.96;46.80
64316;BME280;50652;51.482;-0.580;2023-06-24T00:50:34;102327.46;;;21.12;46.99
64316;BME280;50652;51.482;-0.580;2023-06-24T00:53:01;102326.62;;;21.19;46.49
64316;BME280;50652;51.482;-0.580;2023-06-24T00:55:28;102323.35;;;21.19;46.35
64316;BME280;50652;51.482;-0.580;2023-06-24T00:57:56;102321.89;;;20.97;47.45
64316;BME280;50652;51.482;-0.580;2023-06-24T01:00:23;102317.80;;;21.23;47.30
64316;BME280;50652;51.482;-0.580;2023-06-24T01:02:51;102315.72;;;20.75;48.42
64316;BME280;50652;51.482;-0.580;2023-06-24T01:05:18;102315.58;;;21.05;47.71
64316;BME280;50652;51.482;-0.580;2023-06-24T01:07:47;102316.63;;;21.00;47.23
64316;BME280;50652;51.482;-0.580;2023-06-24T01:10:14;102314.92;;;20.89;46.98
64316;BME280;50652;51.482;-0.580;2023-06-24T01:12:41;102317.69;;;21.12;46.59
64316;BME280;50652;51.482;-0.580;2023-06-24T01:15:09;102316.78;;;20.85;48.24
64316;BME280;50652;51.482;-0.580;2023-06-24T01:17:39;102318.08;;;20.35;49.08
64316;BME280;50652;51.482;-0.580;2023-06-24T18:34:31;101868.16;;;30.20;34.76
64316;BME280;50652;51.482;-0.580;2023-06-24T18:36:58;101868.88;;;30.37;34.48
64316;BME280;50652;51.482;-0.580;2023-06-24T18:39:25;101867.13;;;30.21;34.84
64316;BME280;50652;51.482;-0.580;2023-06-24T18:41:53;101866.25;;;30.14;34.51
64316;BME280;50652;51.482;-0.580;2023-06-24T18:44:20;101865.40;;;30.57;33.96
64316;BME280;50652;51.482;-0.580;2023-06-24T18:46:47;101866.85;;;30.45;34.70
64316;BME280;50652;51.482;-0.580;2023-06-24T18:49:14;101867.49;;;30.25;34.70
64316;BME280;50652;51.482;-0.580;2023-06-24T18:51:41;101865.01;;;30.28;36.02
64316;BME280;50652;51.482;-0.580;2023-06-24T18:54:13;101865.20;;;30.49;35.14
64316;BME280;50652;51.482;-0.580;2023-06-24T18:56:40;101865.27;;;30.44;34.43
64316;BME280;50652;51.482;-0.580;2023-06-24T18:59:07;101868.13;;;30.42;34.64
64316;BME280;50652;51.482;-0.580;2023-06-24T19:01:34;101870.81;;;30.35;34.49
64316;BME280;50652;51.482;-0.580;2023-06-24T19:04:01;101873.33;;;29.85;34.77
64316;BME280;50652;51.482;-0.580;2023-06-24T19:06:29;101873.10;;;29.82;34.95
64316;BME280;50652;51.482;-0.580;2023-06-24T19:08:56;101874.46;;;29.86;35.08
64316;BME280;50652;51.482;-0.580;2023-06-24T19:11:25;101875.16;;;29.79;35.51
64316;BME280;50652;51.482;-0.580;2023-06-24T19:13:52;101875.22;;;29.91;35.26
64316;BME280;50652;51.482;-0.580;2023-06-24T19:16:20;101877.73;;;29.21;35.95
64316;BME280;50652;51.482;-0.580;2023-06-24T19:18:49;101875.59;;;29.71;35.20
64316;BME280;50652;51.482;-0.580;2023-06-24T19:21:17;101871.77;;;29.57;35.59
64316;BME280;50652;51.482;-0.580;2023-06-24T19:23:44;101867.86;;;28.98;35.93
64316;BME280;50652;51.482;-0.580;2023-06-24T19:26:10;101870.22;;;29.28;35.47
64316;BME280;50652;51.482;-0.580;2023-06-24T19:28:37;101874.27;;;29.48;35.36
64316;BME280;50652;51.482;-0.580;2023-06-24T19:31:04;101877.16;;;29.40;35.33
64316;BME280;50652;51.482;-0.580;2023-06-24T19:33:31;101878.27;;;29.18;35.77
64316;BME280;50652;51.482;-0.580;2023-06-24T19:35:58;101876.95;;;29.33;35.41
64316;BME280;50652;51.482;-0.580;2023-06-24T19:38:25;101877.80;;;29.16;35.57
64316;BME280;50652;51.482;-0.580;2023-06-24T19:40:52;101876.91;;;28.84;36.15
64316;BME280;50652;51.482;-0.580;2023-06-24T19:43:19;101875.25;;;28.68;35.62
64316;BME280;50652;51.482;-0.580;2023-06-24T19:45:47;101874.87;;;29.15;36.20
64316;BME280;50652;51.482;-0.580;2023-06-24T19:48:14;101874.05;;;28.68;36.27
64316;BME280;50652;51.482;-0.580;2023-06-24T19:50:41;101873.32;;;28.91;35.80
64316;BME280;50652;51.482;-0.580;2023-06-24T19:53:08;101872.32;;;28.67;35.68
64316;BME280;50652;51.482;-0.580;2023-06-24T19:55:35;101875.50;;;28.52;35.71
64316;BME280;50652;51.482;-0.580;2023-06-24T19:58:02;101875.44;;;28.65;35.38
64316;BME280;50652;51.482;-0.580;2023-06-24T20:00:28;101875.33;;;27.81;35.99
64316;BME280;50652;51.482;-0.580;2023-06-24T20:02:57;101875.01;;;28.02;35.68
64316;BME280;50652;51.482;-0.580;2023-06-24T20:05:24;101870.24;;;27.67;35.83
64316;BME280;50652;51.482;-0.580;2023-06-24T20:07:56;101867.69;;;28.31;35.47
64316;BME280;50652;51.482;-0.580;2023-06-24T20:10:23;101867.75;;;28.37;35.50
64316;BME280;50652;51.482;-0.580;2023-06-24T20:12:50;101867.93;;;28.38;35.51
64316;BME280;50652;51.482;-0.580;2023-06-24T20:15:17;101864.46;;;28.54;35.57
64316;BME280;50652;51.482;-0.580;2023-06-24T20:17:44;101864.78;;;27.93;35.78
64316;BME280;50652;51.482;-0.580;2023-06-24T20:20:12;101860.91;;;27.94;35.82
64316;BME280;50652;51.482;-0.580;2023-06-24T20:22:39;101860.80;;;28.31;35.84
64316;BME280;50652;51.482;-0.580;2023-06-24T20:25:07;101862.58;;;28.05;36.12
64316;BME280;50652;51.482;-0.580;2023-06-24T20:27:34;101860.09;;;28.09;36.06
64316;BME280;50652;51.482;-0.580;2023-06-24T20:30:01;101861.99;;;27.48;36.46
64316;BME280;50652;51.482;-0.580;2023-06-24T20:32:28;101859.09;;;27.63;36.61
64316;BME280;50652;51.482;-0.580;2023-06-24T20:34:55;101859.08;;;27.99;36.44
64316;BME280;50652;51.482;-0.580;2023-06-24T20:37:22;101860.56;;;27.85;36.93
64316;BME280;50652;51.482;-0.580;2023-06-24T20:39:48;101863.37;;;27.56;36.44
64316;BME280;50652;51.482;-0.580;2023-06-24T20:42:15;101863.53;;;27.88;37.13
64316;BME280;50652;51.482;-0.580;2023-06-24T20:44:43;101860.59;;;26.94;37.33
64316;BME280;50652;51.482;-0.580;2023-06-24T20:47:10;101866.49;;;27.64;37.79
64316;BME280;50652;51.482;-0.580;2023-06-24T20:49:37;101864.78;;;27.15;37.98
64316;BME280;50652;51.482;-0.580;2023-06-24T20:52:04;101866.26;;;27.48;37.74
64316;BME280;50652;51.482;-0.580;2023-06-24T20:54:31;101864.06;;;27.53;37.61
64316;BME280;50652;51.482;-0.580;2023-06-24T20:56:58;101862.19;;;26.97;37.88
64316;BME280;50652;51.482;-0.580;2023-06-24T20:59:25;101860.62;;;26.66;37.85
64316;BME280;50652;51.482;-0.580;2023-06-24T21:01:52;101865.70;;;26.58;37.69
64316;BME280;50652;51.482;-0.580;2023-06-24T21:04:19;101864.50;;;26.51;37.79
64316;BME280;50652;51.482;-0.580;2023-06-24T21:06:47;101863.23;;;26.72;37.48
64316;BME280;50652;51.482;-0.580;2023-06-24T21:09:13;101863.64;;;26.55;37.71
64316;BME280;50652;51.482;-0.580;2023-06-24T21:11:40;101863.68;;;26.98;37.32
64316;BME280;50652;51.482;-0.580;2023-06-24T21:14:07;101859.91;;;26.93;37.25
64316;BME280;50652;51.482;-0.580;2023-06-24T21:16:34;101861.22;;;26.64;37.41
64316;BME280;50652;51.482;-0.580;2023-06-24T21:19:01;101863.01;;;26.61;37.52
64316;BME280;50652;51.482;-0.580;2023-06-24T21:21:28;101862.61;;;26.62;37.82
64316;BME280;50652;51.482;-0.580;2023-06-24T21:23:55;101859.54;;;26.88;38.07
64316;BME280;50652;51.482;-0.580;2023-06-24T21:26:23;101854.72;;;26.66;38.17
64316;BME280;50652;51.482;-0.580;2023-06-24T21:28:50;101851.86;;;25.97;38.64
64316;BME280;50652;51.482;-0.580;2023-06-24T21:31:17;101850.67;;;26.13;38.00
64316;BME280;50652;51.482;-0.580;2023-06-24T21:33:43;101841.58;;;25.87;38.49
64316;BME280;50652;51.482;-0.580;2023-06-24T21:36:17;101836.07;;;26.01;38.64
64316;BME280;50652;51.482;-0.580;2023-06-24T21:38:44;101832.62;;;26.44;37.84
64316;BME280;50652;51.482;-0.580;2023-06-24T21:41:11;101829.87;;;26.22;38.51
64316;BME280;50652;51.482;-0.580;2023-06-24T21:43:38;101826.77;;;26.27;38.19
64316;BME280;50652;51.482;-0.580;2023-06-24T21:46:05;101824.17;;;25.91;38.17
64316;BME280;50652;51.482;-0.580;2023-06-24T21:48:32;101819.27;;;26.12;38.66
64316;BME280;50652;51.482;-0.580;2023-06-24T21:50:59;101817.47;;;25.77;38.89
64316;BME280;50652;51.482;-0.580;2023-06-24T21:53:26;101818.23;;;25.93;38.95
64316;BME280;50652;51.482;-0.580;2023-06-24T21:55:53;101813.60;;;25.94;39.29
64316;BME280;50652;51.482;-0.580;2023-06-24T21:58:20;101809.35;;;26.18;38.99
64316;BME280;50652;51.482;-0.580;2023-06-24T22:00:47;101811.18;;;25.83;39.32
64316;BME280;50652;51.482;-0.580;2023-06-24T22:03:14;101818.92;;;26.00;39.30
64316;BME280;50652;51.482;-0.580;2023-06-24T22:05:41;101817.64;;;25.61;39.54
64316;BME280;50652;51.482;-0.580;2023-06-24T22:08:08;101819.32;;;25.65;39.68
64316;BME280;50652;51.482;-0.580;2023-06-24T22:10:35;101818.41;;;25.70;39.80
64316;BME280;50652;51.482;-0.580;2023-06-24T22:13:02;101812.30;;;25.64;39.77
64316;BME280;50652;51.482;-0.580;2023-06-24T22:15:29;101812.91;;;25.39;40.06
64316;BME280;50652;51.482;-0.580;2023-06-24T22:17:56;101815.45;;;25.77;39.90
64316;BME280;50652;51.482;-0.580;2023-06-24T22:20:23;101820.15;;;25.65;40.07
64316;BME280;50652;51.482;-0.580;2023-06-24T22:22:50;101824.07;;;25.48;40.37
64316;BME280;50652;51.482;-0.580;2023-06-24T22:25:17;101827.36;;;25.37;40.45
64316;BME280;50652;51.482;-0.580;2023-06-24T22:27:44;101820.57;;;25.35;40.57
64316;BME280;50652;51.482;-0.580;2023-06-24T22:30:12;101810.27;;;25.19;40.74
64316;BME280;50652;51.482;-0.580;2023-06-24T22:32:39;101802.22;;;25.09;40.81
64316;BME280;50652;51.482;-0.580;2023-06-24T22:35:07;101797.54;;;25.11;40.77
64316;BME280;50652;51.482;-0.580;2023-06-24T22:37:34;101795.11;;;25.49;40.61
64316;BME280;50652;51.482;-0.580;2023-06-24T22:40:01;101796.89;;;25.22;40.62
64316;BME280;50652;51.482;-0.580;2023-06-24T22:42:28;101794.13;;;24.91;40.79
64316;BME280;50652;51.482;-0.580;2023-06-24T22:44:55;101795.73;;;25.11;40.67
64316;BME280;50652;51.482;-0.580;2023-06-24T22:47:22;101795.15;;;24.78;40.95
64316;BME280;50652;51.482;-0.580;2023-06-24T22:49:49;101793.05;;;24.58;41.37
64316;BME280;50652;51.482;-0.580;2023-06-24T22:52:16;101798.51;;;24.43;41.35
64316;BME280;50652;51.482;-0.580;2023-06-24T22:54:43;101801.34;;;24.62;41.49
64316;BME280;50652;51.482;-0.580;2023-06-24T22:57:10;101799.93;;;24.64;41.62
64316;BME280;50652;51.482;-0.580;2023-06-24T22:59:37;101798.31;;;24.62;41.67
64316;BME280;50652;51.482;-0.580;2023-06-24T23:02:06;101797.29;;;24.62;41.78
64316;BME280;50652;51.482;-0.580;2023-06-24T23:04:33;101800.05;;;24.52;41.87
64316;BME280;50652;51.482;-0.580;2023-06-24T23:07:01;101794.93;;;24.49;42.04
64316;BME280;50652;51.482;-0.580;2023-06-24T23:09:29;101792.24;;;24.49;42.20
64316;BME280;50652;51.482;-0.580;2023-06-24T23:11:57;101790.83;;;24.49;42.26
64316;BME280;50652;51.482;-0.580;2023-06-24T23:14:25;101783.79;;;24.41;42.23
64316;BME280;50652;51.482;-0.580;2023-06-24T23:16:53;101780.79;;;24.41;42.21
64316;BME280;50652;51.482;-0.580;2023-06-24T23:19:21;101779.94;;;24.33;42.41
64316;BME280;50652;51.482;-0.580;2023-06-24T23:21:48;101786.66;;;24.08;42.49
64316;BME280;50652;51.482;-0.580;2023-06-24T23:24:17;101796.52;;;24.09;42.58
64316;BME280;50652;51.482;-0.580;2023-06-24T23:26:45;101796.48;;;24.10;42.57
64316;BME280;50652;51.482;-0.580;2023-06-24T23:29:12;101795.35;;;24.38;42.78
64316;BME280;50652;51.482;-0.580;2023-06-24T23:31:39;101796.70;;;24.15;42.85
64316;BME280;50652;51.482;-0.580;2023-06-24T23:34:07;101793.45;;;24.12;43.00
64316;BME280;50652;51.482;-0.580;2023-06-24T23:36:40;101794.60;;;24.35;43.06
64316;BME280;50652;51.482;-0.580;2023-06-24T23:39:17;101789.48;;;24.22;43.38
64316;BME280;50652;51.482;-0.580;2023-06-24T23:41:45;101786.48;;;24.13;43.51
64316;BME280;50652;51.482;-0.580;2023-06-24T23:44:12;101780.03;;;24.14;43.62
64316;BME280;50652;51.482;-0.580;2023-06-24T23:46:39;101770.40;;;23.98;43.62
64316;BME280;50652;51.482;-0.580;2023-06-24T23:49:06;101765.12;;;24.30;43.86
64316;BME280;50652;51.482;-0.580;2023-06-24T23:51:33;101763.62;;;24.26;43.68
64316;BME280;50652;51.482;-0.580;2023-06-24T23:54:00;101762.67;;;24.02;43.71
64316;BME280;50652;51.482;-0.580;2023-06-24T23:56:27;101759.01;;;23.95;43.67
64316;BME280;50652;51.482;-0.580;2023-06-24T23:58:54;101754.76;;;23.50;43.55
